sensor_id;sensor_type;location;lat;lon;timestamp;P1;durP1;ratioP1;P2;durP2;ratioP2
37239;SDS011;23130;48.760;9.178;2022-09-17T00:01:48;0.73;;;0.50;;
37239;SDS011;23130;48.760;9.178;2022-09-17T00:04:13;1.15;;;0.50;;
37239;SDS011;23130;48.760;9.178;2022-09-17T00:06:39;0.93;;;0.47;;
37239;SDS011;23130;48.760;9.178;2022-09-17T00:09:05;1.25;;;0.40;;
37239;SDS011;23130;48.760;9.178;2022-09-17T00:11:33;1.63;;;0.55;;
37239;SDS011;23130;48.760;9.178;2022-09-17T00:14:01;1.80;;;0.40;;
37239;SDS011;23130;48.760;9.178;2022-09-17T00:18:55;0.95;;;0.57;;
37239;SDS011;23130;48.760;9.178;2022-09-17T00:21:21;0.95;;;0.65;;
37239;SDS011;23130;48.760;9.178;2022-09-17T00:23:48;1.33;;;0.63;;
37239;SDS011;23130;48.760;9.178;2022-09-17T00:26:18;2.55;;;0.70;;
37239;SDS011;23130;48.760;9.178;2022-09-17T00:28:43;1.85;;;0.40;;
37239;SDS011;23130;48.760;9.178;2022-09-17T00:31:14;0.95;;;0.60;;
37239;SDS011;23130;48.760;9.178;2022-09-17T00:33:39;1.92;;;0.70;;
37239;SDS011;23130;48.760;9.178;2022-09-17T00:36:05;3.70;;;0.68;;
37239;SDS011;23130;48.760;9.178;2022-09-17T00:38:31;1.15;;;0.70;;
37239;SDS011;23130;48.760;9.178;2022-09-17T00:41:17;4.28;;;0.55;;
37239;SDS011;23130;48.760;9.178;2022-09-17T00:43:45;1.63;;;0.60;;
37239;SDS011;23130;48.760;9.178;2022-09-17T00:46:32;380.10;;;338.42;;
37239;SDS011;23130;48.760;9.178;2022-09-17T00:49:08;419.97;;;323.43;;
37239;SDS011;23130;48.760;9.178;2022-09-17T00:51:38;366.47;;;281.43;;
37239;SDS011;23130;48.760;9.178;2022-09-17T00:54:11;414.27;;;222.17;;
37239;SDS011;23130;48.760;9.178;2022-09-17T00:56:38;422.00;;;319.43;;
37239;SDS011;23130;48.760;9.178;2022-09-17T00:59:05;431.30;;;236.27;;
37239;SDS011;23130;48.760;9.178;2022-09-17T01:01:32;432.60;;;227.10;;
37239;SDS011;23130;48.760;9.178;2022-09-17T01:03:58;426.42;;;232.45;;
37239;SDS011;23130;48.760;9.178;2022-09-17T01:32:11;428.73;;;213.18;;
37239;SDS011;23130;48.760;9.178;2022-09-17T01:34:48;428.77;;;230.35;;
37239;SDS011;23130;48.760;9.178;2022-09-17T01:37:33;423.10;;;211.90;;
37239;SDS011;23130;48.760;9.178;2022-09-17T01:40:21;430.70;;;236.57;;
37239;SDS011;23130;48.760;9.178;2022-09-17T01:45:41;440.37;;;275.03;;
37239;SDS011;23130;48.760;9.178;2022-09-17T01:48:17;446.40;;;291.13;;
37239;SDS011;23130;48.760;9.178;2022-09-17T01:53:27;425.50;;;238.02;;
37239;SDS011;23130;48.760;9.178;2022-09-17T01:55:56;433.42;;;268.63;;
37239;SDS011;23130;48.760;9.178;2022-09-17T01:58:28;432.83;;;257.60;;
37239;SDS011;23130;48.760;9.178;2022-09-17T02:01:00;448.23;;;282.07;;
37239;SDS011;23130;48.760;9.178;2022-09-17T02:03:36;456.17;;;290.07;;
37239;SDS011;23130;48.760;9.178;2022-09-17T02:06:17;462.93;;;314.80;;
37239;SDS011;23130;48.760;9.178;2022-09-17T02:08:50;455.27;;;305.07;;
37239;SDS011;23130;48.760;9.178;2022-09-17T02:13:51;472.33;;;347.27;;
37239;SDS011;23130;48.760;9.178;2022-09-17T02:16:28;452.23;;;310.33;;
37239;SDS011;23130;48.760;9.178;2022-09-17T02:19:01;450.27;;;284.92;;
37239;SDS011;23130;48.760;9.178;2022-09-17T02:24:15;450.53;;;293.33;;
37239;SDS011;23130;48.760;9.178;2022-09-17T02:26:47;460.43;;;304.97;;
37239;SDS011;23130;48.760;9.178;2022-09-17T02:29:31;460.47;;;310.90;;
37239;SDS011;23130;48.760;9.178;2022-09-17T02:31:59;477.25;;;330.77;;
37239;SDS011;23130;48.760;9.178;2022-09-17T02:34:26;327.50;;;240.52;;
37239;SDS011;23130;48.760;9.178;2022-09-17T02:36:53;450.50;;;283.13;;
37239;SDS011;23130;48.760;9.178;2022-09-17T02:39:25;454.83;;;290.60;;
37239;SDS011;23130;48.760;9.178;2022-09-17T02:41:58;453.00;;;306.40;;
37239;SDS011;23130;48.760;9.178;2022-09-17T02:58:18;361.83;;;261.97;;
37239;SDS011;23130;48.760;9.178;2022-09-17T03:00:51;460.67;;;289.37;;
37239;SDS011;23130;48.760;9.178;2022-09-17T03:03:29;468.17;;;312.53;;
37239;SDS011;23130;48.760;9.178;2022-09-17T03:05:59;471.93;;;313.03;;
37239;SDS011;23130;48.760;9.178;2022-09-17T03:08:28;464.97;;;308.33;;
37239;SDS011;23130;48.760;9.178;2022-09-17T03:10:58;493.38;;;370.67;;
37239;SDS011;23130;48.760;9.178;2022-09-17T03:13:24;478.23;;;326.47;;
37239;SDS011;23130;48.760;9.178;2022-09-17T03:15:49;467.53;;;303.20;;
37239;SDS011;23130;48.760;9.178;2022-09-17T03:18:15;471.63;;;321.10;;
37239;SDS011;23130;48.760;9.178;2022-09-17T03:20:41;478.13;;;324.67;;
37239;SDS011;23130;48.760;9.178;2022-09-17T03:23:06;479.77;;;319.73;;
37239;SDS011;23130;48.760;9.178;2022-09-17T03:25:32;471.43;;;297.17;;
37239;SDS011;23130;48.760;9.178;2022-09-17T03:27:57;460.43;;;288.00;;
37239;SDS011;23130;48.760;9.178;2022-09-17T03:30:23;466.63;;;304.50;;
37239;SDS011;23130;48.760;9.178;2022-09-17T03:32:49;488.93;;;346.67;;
37239;SDS011;23130;48.760;9.178;2022-09-17T03:35:14;479.43;;;319.60;;
37239;SDS011;23130;48.760;9.178;2022-09-17T03:37:40;465.50;;;301.33;;
37239;SDS011;23130;48.760;9.178;2022-09-17T03:40:05;494.97;;;347.80;;
37239;SDS011;23130;48.760;9.178;2022-09-17T03:42:31;360.37;;;236.80;;
37239;SDS011;23130;48.760;9.178;2022-09-17T03:44:57;484.00;;;316.47;;
37239;SDS011;23130;48.760;9.178;2022-09-17T03:47:22;354.50;;;227.77;;
37239;SDS011;23130;48.760;9.178;2022-09-17T03:49:48;474.43;;;296.50;;
37239;SDS011;23130;48.760;9.178;2022-09-17T03:52:14;482.23;;;310.70;;
37239;SDS011;23130;48.760;9.178;2022-09-17T03:54:39;490.97;;;313.80;;
37239;SDS011;23130;48.760;9.178;2022-09-17T03:57:05;483.37;;;304.47;;
37239;SDS011;23130;48.760;9.178;2022-09-17T03:59:30;357.70;;;219.17;;
37239;SDS011;23130;48.760;9.178;2022-09-17T04:01:56;362.50;;;221.43;;
37239;SDS011;23130;48.760;9.178;2022-09-17T04:04:22;325.48;;;115.70;;
37239;SDS011;23130;48.760;9.178;2022-09-17T04:06:47;34.70;;;25.65;;
37239;SDS011;23130;48.760;9.178;2022-09-17T04:09:13;123.53;;;60.35;;
37239;SDS011;23130;48.760;9.178;2022-09-17T04:11:38;358.53;;;230.73;;
37239;SDS011;23130;48.760;9.178;2022-09-17T04:14:04;354.20;;;228.63;;
37239;SDS011;23130;48.760;9.178;2022-09-17T04:16:29;475.87;;;322.57;;
37239;SDS011;23130;48.760;9.178;2022-09-17T04:18:55;473.03;;;318.20;;
37239;SDS011;23130;48.760;9.178;2022-09-17T04:21:20;452.17;;;292.57;;
37239;SDS011;23130;48.760;9.178;2022-09-17T04:23:46;440.53;;;262.23;;
37239;SDS011;23130;48.760;9.178;2022-09-17T04:26:12;427.70;;;255.57;;
37239;SDS011;23130;48.760;9.178;2022-09-17T04:28:37;448.10;;;274.47;;
37239;SDS011;23130;48.760;9.178;2022-09-17T04:31:03;429.47;;;237.97;;
37239;SDS011;23130;48.760;9.178;2022-09-17T04:33:28;444.17;;;277.03;;
37239;SDS011;23130;48.760;9.178;2022-09-17T04:35:54;435.83;;;240.70;;
37239;SDS011;23130;48.760;9.178;2022-09-17T04:38:19;441.90;;;261.57;;
37239;SDS011;23130;48.760;9.178;2022-09-17T04:40:46;447.67;;;268.07;;
37239;SDS011;23130;48.760;9.178;2022-09-17T04:43:12;447.43;;;263.83;;
37239;SDS011;23130;48.760;9.178;2022-09-17T04:45:38;453.43;;;268.83;;
37239;SDS011;23130;48.760;9.178;2022-09-17T04:48:03;456.90;;;276.80;;
37239;SDS011;23130;48.760;9.178;2022-09-17T04:50:29;450.97;;;260.83;;
37239;SDS011;23130;48.760;9.178;2022-09-17T04:52:55;469.37;;;310.00;;
37239;SDS011;23130;48.760;9.178;2022-09-17T04:55:21;469.93;;;309.77;;
37239;SDS011;23130;48.760;9.178;2022-09-17T04:57:47;465.27;;;298.53;;
37239;SDS011;23130;48.760;9.178;2022-09-17T05:00:15;465.47;;;293.20;;
37239;SDS011;23130;48.760;9.178;2022-09-17T05:02:43;468.07;;;303.37;;
37239;SDS011;23130;48.760;9.178;2022-09-17T05:05:10;467.57;;;299.30;;
37239;SDS011;23130;48.760;9.178;2022-09-17T05:07:39;463.17;;;285.97;;
37239;SDS011;23130;48.760;9.178;2022-09-17T05:10:06;459.87;;;285.43;;
37239;SDS011;23130;48.760;9.178;2022-09-17T05:12:32;471.10;;;287.73;;
37239;SDS011;23130;48.760;9.178;2022-09-17T05:14:58;464.30;;;290.60;;
37239;SDS011;23130;48.760;9.178;2022-09-17T05:17:23;455.30;;;269.00;;
37239;SDS011;23130;48.760;9.178;2022-09-17T05:19:49;459.47;;;283.30;;
37239;SDS011;23130;48.760;9.178;2022-09-17T05:22:15;453.87;;;285.13;;
37239;SDS011;23130;48.760;9.178;2022-09-17T05:24:40;447.70;;;248.87;;
37239;SDS011;23130;48.760;9.178;2022-09-17T05:27:07;435.50;;;236.80;;
37239;SDS011;23130;48.760;9.178;2022-09-17T05:29:33;446.07;;;256.20;;
37239;SDS011;23130;48.760;9.178;2022-09-17T05:31:58;463.13;;;293.00;;
37239;SDS011;23130;48.760;9.178;2022-09-17T05:34:24;454.63;;;262.80;;
37239;SDS011;23130;48.760;9.178;2022-09-17T05:36:49;460.93;;;272.87;;
37239;SDS011;23130;48.760;9.178;2022-09-17T05:39:15;465.67;;;294.40;;
37239;SDS011;23130;48.760;9.178;2022-09-17T05:41:41;465.70;;;286.43;;
37239;SDS011;23130;48.760;9.178;2022-09-17T05:44:07;462.17;;;280.30;;
37239;SDS011;23130;48.760;9.178;2022-09-17T05:46:32;463.20;;;283.60;;
37239;SDS011;23130;48.760;9.178;2022-09-17T05:48:58;466.00;;;294.10;;
37239;SDS011;23130;48.760;9.178;2022-09-17T05:51:23;468.17;;;298.87;;
37239;SDS011;23130;48.760;9.178;2022-09-17T05:53:49;468.67;;;297.20;;
37239;SDS011;23130;48.760;9.178;2022-09-17T05:56:15;466.70;;;291.93;;
37239;SDS011;23130;48.760;9.178;2022-09-17T05:58:40;479.97;;;317.40;;
37239;SDS011;23130;48.760;9.178;2022-09-17T06:01:06;469.40;;;303.20;;
37239;SDS011;23130;48.760;9.178;2022-09-17T06:03:31;471.50;;;308.47;;
37239;SDS011;23130;48.760;9.178;2022-09-17T06:05:57;479.63;;;322.70;;
37239;SDS011;23130;48.760;9.178;2022-09-17T06:08:24;467.70;;;292.98;;
37239;SDS011;23130;48.760;9.178;2022-09-17T06:10:51;461.88;;;292.88;;
37239;SDS011;23130;48.760;9.178;2022-09-17T06:13:17;464.70;;;306.83;;
37239;SDS011;23130;48.760;9.178;2022-09-17T06:15:50;488.23;;;358.25;;
37239;SDS011;23130;48.760;9.178;2022-09-17T06:18:17;482.58;;;343.10;;
37239;SDS011;23130;48.760;9.178;2022-09-17T06:20:50;473.05;;;320.92;;
37239;SDS011;23130;48.760;9.178;2022-09-17T06:23:23;471.70;;;323.90;;
37239;SDS011;23130;48.760;9.178;2022-09-17T06:25:53;476.42;;;329.77;;
37239;SDS011;23130;48.760;9.178;2022-09-17T06:28:21;470.00;;;319.48;;
37239;SDS011;23130;48.760;9.178;2022-09-17T06:30:46;468.90;;;315.65;;
37239;SDS011;23130;48.760;9.178;2022-09-17T06:33:12;471.25;;;324.40;;
37239;SDS011;23130;48.760;9.178;2022-09-17T06:35:38;469.25;;;318.02;;
37239;SDS011;23130;48.760;9.178;2022-09-17T06:38:04;468.38;;;319.08;;
37239;SDS011;23130;48.760;9.178;2022-09-17T06:40:30;468.65;;;320.90;;
37239;SDS011;23130;48.760;9.178;2022-09-17T06:42:56;471.35;;;324.50;;
37239;SDS011;23130;48.760;9.178;2022-09-17T06:45:25;471.02;;;324.20;;
37239;SDS011;23130;48.760;9.178;2022-09-17T06:47:51;471.75;;;321.67;;
37239;SDS011;23130;48.760;9.178;2022-09-17T06:50:17;471.00;;;313.48;;
37239;SDS011;23130;48.760;9.178;2022-09-17T06:52:52;474.75;;;329.13;;
37239;SDS011;23130;48.760;9.178;2022-09-17T06:55:19;474.85;;;332.40;;
37239;SDS011;23130;48.760;9.178;2022-09-17T06:57:45;468.42;;;323.20;;
37239;SDS011;23130;48.760;9.178;2022-09-17T07:00:11;467.58;;;310.35;;
37239;SDS011;23130;48.760;9.178;2022-09-17T07:02:38;467.40;;;314.40;;
37239;SDS011;23130;48.760;9.178;2022-09-17T07:05:04;468.75;;;326.05;;
37239;SDS011;23130;48.760;9.178;2022-09-17T07:07:30;470.15;;;324.23;;
37239;SDS011;23130;48.760;9.178;2022-09-17T07:09:56;461.55;;;303.00;;
37239;SDS011;23130;48.760;9.178;2022-09-17T07:12:21;460.75;;;298.70;;
37239;SDS011;23130;48.760;9.178;2022-09-17T07:14:47;460.90;;;310.33;;
37239;SDS011;23130;48.760;9.178;2022-09-17T07:17:13;457.05;;;292.05;;
37239;SDS011;23130;48.760;9.178;2022-09-17T07:19:39;457.33;;;291.02;;
37239;SDS011;23130;48.760;9.178;2022-09-17T07:22:04;460.15;;;303.58;;
37239;SDS011;23130;48.760;9.178;2022-09-17T07:24:30;452.80;;;290.27;;
37239;SDS011;23130;48.760;9.178;2022-09-17T07:26:56;462.60;;;305.50;;
37239;SDS011;23130;48.760;9.178;2022-09-17T07:29:21;464.60;;;309.75;;
37239;SDS011;23130;48.760;9.178;2022-09-17T07:31:50;468.10;;;324.88;;
37239;SDS011;23130;48.760;9.178;2022-09-17T07:34:16;490.77;;;362.53;;
37239;SDS011;23130;48.760;9.178;2022-09-17T07:36:42;482.70;;;346.73;;
37239;SDS011;23130;48.760;9.178;2022-09-17T07:39:08;480.70;;;323.00;;
37239;SDS011;23130;48.760;9.178;2022-09-17T07:41:35;489.40;;;358.33;;
37239;SDS011;23130;48.760;9.178;2022-09-17T07:44:01;480.63;;;340.97;;
37239;SDS011;23130;48.760;9.178;2022-09-17T07:46:27;485.40;;;346.07;;
37239;SDS011;23130;48.760;9.178;2022-09-17T07:48:52;484.27;;;346.57;;
37239;SDS011;23130;48.760;9.178;2022-09-17T07:51:19;479.93;;;337.63;;
37239;SDS011;23130;48.760;9.178;2022-09-17T07:53:49;477.35;;;334.55;;
37239;SDS011;23130;48.760;9.178;2022-09-17T07:56:18;484.90;;;334.90;;
37239;SDS011;23130;48.760;9.178;2022-09-17T07:58:44;478.20;;;331.53;;
37239;SDS011;23130;48.760;9.178;2022-09-17T08:01:10;476.20;;;325.40;;
37239;SDS011;23130;48.760;9.178;2022-09-17T08:03:36;478.40;;;336.70;;
37239;SDS011;23130;48.760;9.178;2022-09-17T08:08:31;468.90;;;318.13;;
37239;SDS011;23130;48.760;9.178;2022-09-17T08:11:05;475.77;;;331.77;;
37239;SDS011;23130;48.760;9.178;2022-09-17T08:13:32;474.33;;;324.80;;
37239;SDS011;23130;48.760;9.178;2022-09-17T08:15:59;471.00;;;312.30;;
37239;SDS011;23130;48.760;9.178;2022-09-17T08:18:26;471.60;;;321.33;;
37239;SDS011;23130;48.760;9.178;2022-09-17T08:20:54;477.77;;;326.60;;
37239;SDS011;23130;48.760;9.178;2022-09-17T08:23:21;473.77;;;319.00;;
37239;SDS011;23130;48.760;9.178;2022-09-17T08:25:53;467.47;;;308.00;;
37239;SDS011;23130;48.760;9.178;2022-09-17T08:28:23;465.97;;;309.60;;
37239;SDS011;23130;48.760;9.178;2022-09-17T08:30:50;462.57;;;304.27;;
37239;SDS011;23130;48.760;9.178;2022-09-17T08:33:16;469.33;;;310.43;;
37239;SDS011;23130;48.760;9.178;2022-09-17T08:35:42;470.77;;;304.98;;
37239;SDS011;23130;48.760;9.178;2022-09-17T08:38:18;460.25;;;283.55;;
37239;SDS011;23130;48.760;9.178;2022-09-17T08:41:18;454.02;;;280.13;;
37239;SDS011;23130;48.760;9.178;2022-09-17T08:44:05;463.67;;;299.65;;
37239;SDS011;23130;48.760;9.178;2022-09-17T08:46:45;456.25;;;278.65;;
37239;SDS011;23130;48.760;9.178;2022-09-17T08:49:31;454.92;;;285.00;;
37239;SDS011;23130;48.760;9.178;2022-09-17T08:55:16;466.02;;;312.10;;
37239;SDS011;23130;48.760;9.178;2022-09-17T09:00:35;459.02;;;293.88;;
37239;SDS011;23130;48.760;9.178;2022-09-17T09:03:21;447.73;;;264.10;;
37239;SDS011;23130;48.760;9.178;2022-09-17T09:05:53;475.42;;;348.13;;
37239;SDS011;23130;48.760;9.178;2022-09-17T09:08:56;465.88;;;302.85;;
37239;SDS011;23130;48.760;9.178;2022-09-17T09:11:20;467.65;;;313.75;;
37239;SDS011;23130;48.760;9.178;2022-09-17T09:13:52;457.85;;;290.30;;
37239;SDS011;23130;48.760;9.178;2022-09-17T09:16:24;464.05;;;309.15;;
37239;SDS011;23130;48.760;9.178;2022-09-17T09:18:53;458.17;;;295.20;;
37239;SDS011;23130;48.760;9.178;2022-09-17T09:21:27;458.80;;;300.90;;
37239;SDS011;23130;48.760;9.178;2022-09-17T09:24:03;461.02;;;300.75;;
37239;SDS011;23130;48.760;9.178;2022-09-17T09:26:54;462.55;;;291.25;;
37239;SDS011;23130;48.760;9.178;2022-09-17T09:32:22;464.70;;;306.55;;
37239;SDS011;23130;48.760;9.178;2022-09-17T09:34:49;460.85;;;296.92;;
37239;SDS011;23130;48.760;9.178;2022-09-17T09:37:16;460.60;;;303.58;;
37239;SDS011;23130;48.760;9.178;2022-09-17T09:42:22;465.05;;;313.15;;
37239;SDS011;23130;48.760;9.178;2022-09-17T09:45:11;459.92;;;307.52;;
37239;SDS011;23130;48.760;9.178;2022-09-17T09:50:30;460.17;;;307.40;;
37239;SDS011;23130;48.760;9.178;2022-09-17T09:53:23;461.30;;;298.08;;
37239;SDS011;23130;48.760;9.178;2022-09-17T09:56:24;463.25;;;315.85;;
37239;SDS011;23130;48.760;9.178;2022-09-17T09:59:09;462.75;;;312.08;;
37239;SDS011;23130;48.760;9.178;2022-09-17T10:01:37;465.00;;;325.27;;
37239;SDS011;23130;48.760;9.178;2022-09-17T10:06:48;468.63;;;324.13;;
37239;SDS011;23130;48.760;9.178;2022-09-17T10:09:16;483.58;;;358.50;;
37239;SDS011;23130;48.760;9.178;2022-09-17T10:11:58;474.27;;;342.55;;
37239;SDS011;23130;48.760;9.178;2022-09-17T10:14:25;479.27;;;347.25;;
37239;SDS011;23130;48.760;9.178;2022-09-17T10:19:43;474.25;;;338.02;;
37239;SDS011;23130;48.760;9.178;2022-09-17T10:22:17;472.08;;;342.65;;
37239;SDS011;23130;48.760;9.178;2022-09-17T10:24:53;473.63;;;347.48;;
37239;SDS011;23130;48.760;9.178;2022-09-17T10:27:21;479.00;;;362.02;;
37239;SDS011;23130;48.760;9.178;2022-09-17T10:29:49;475.25;;;351.65;;
37239;SDS011;23130;48.760;9.178;2022-09-17T10:32:21;476.40;;;355.77;;
37239;SDS011;23130;48.760;9.178;2022-09-17T10:35:52;469.40;;;342.42;;
37239;SDS011;23130;48.760;9.178;2022-09-17T10:37:46;476.73;;;349.40;;
37239;SDS011;23130;48.760;9.178;2022-09-17T10:42:44;467.10;;;345.58;;
37239;SDS011;23130;48.760;9.178;2022-09-17T10:45:23;477.38;;;375.17;;
37239;SDS011;23130;48.760;9.178;2022-09-17T10:47:51;479.17;;;371.42;;
37239;SDS011;23130;48.760;9.178;2022-09-17T10:50:17;468.35;;;343.30;;
37239;SDS011;23130;48.760;9.178;2022-09-17T10:52:47;464.80;;;345.63;;
37239;SDS011;23130;48.760;9.178;2022-09-17T10:55:27;475.10;;;371.73;;
37239;SDS011;23130;48.760;9.178;2022-09-17T11:00:43;472.65;;;366.23;;
37239;SDS011;23130;48.760;9.178;2022-09-17T11:06:27;475.30;;;375.50;;
37239;SDS011;23130;48.760;9.178;2022-09-17T11:08:57;480.38;;;383.60;;
37239;SDS011;23130;48.760;9.178;2022-09-17T11:11:40;491.23;;;413.98;;
37239;SDS011;23130;48.760;9.178;2022-09-17T11:14:39;482.60;;;396.00;;
37239;SDS011;23130;48.760;9.178;2022-09-17T11:17:34;481.42;;;392.23;;
37239;SDS011;23130;48.760;9.178;2022-09-17T11:31:29;534.00;;;475.50;;
37239;SDS011;23130;48.760;9.178;2022-09-17T11:34:32;525.30;;;450.58;;
37239;SDS011;23130;48.760;9.178;2022-09-17T11:36:55;529.25;;;460.55;;
37239;SDS011;23130;48.760;9.178;2022-09-17T11:42:01;531.70;;;472.77;;
37239;SDS011;23130;48.760;9.178;2022-09-17T11:44:32;522.90;;;460.42;;
37239;SDS011;23130;48.760;9.178;2022-09-17T11:47:18;552.88;;;493.52;;
37239;SDS011;23130;48.760;9.178;2022-09-17T11:49:57;544.90;;;485.52;;
37239;SDS011;23130;48.760;9.178;2022-09-17T11:52:37;561.00;;;500.33;;
37239;SDS011;23130;48.760;9.178;2022-09-17T11:55:18;517.28;;;441.05;;
37239;SDS011;23130;48.760;9.178;2022-09-17T11:57:51;556.65;;;496.95;;
37239;SDS011;23130;48.760;9.178;2022-09-17T12:00:24;572.88;;;512.85;;
37239;SDS011;23130;48.760;9.178;2022-09-17T12:05:38;593.78;;;532.33;;
37239;SDS011;23130;48.760;9.178;2022-09-17T12:08:30;549.85;;;490.08;;
37239;SDS011;23130;48.760;9.178;2022-09-17T12:11:06;575.47;;;514.58;;
37239;SDS011;23130;48.760;9.178;2022-09-17T12:14:00;538.60;;;443.70;;
37239;SDS011;23130;48.760;9.178;2022-09-17T12:16:48;504.67;;;346.23;;
37239;SDS011;23130;48.760;9.178;2022-09-17T12:21:56;474.92;;;245.00;;
37239;SDS011;23130;48.760;9.178;2022-09-17T12:24:33;463.95;;;219.45;;
37239;SDS011;23130;48.760;9.178;2022-09-17T12:27:07;471.55;;;255.57;;
37239;SDS011;23130;48.760;9.178;2022-09-17T12:41:08;469.50;;;220.73;;
37239;SDS011;23130;48.760;9.178;2022-09-17T13:03:41;465.20;;;200.80;;
37239;SDS011;23130;48.760;9.178;2022-09-17T13:17:26;446.13;;;190.13;;
37239;SDS011;23130;48.760;9.178;2022-09-17T13:20:16;441.10;;;185.45;;
37239;SDS011;23130;48.760;9.178;2022-09-17T13:22:47;435.48;;;185.77;;
37239;SDS011;23130;48.760;9.178;2022-09-17T13:25:16;434.10;;;185.60;;
37239;SDS011;23130;48.760;9.178;2022-09-17T13:27:44;411.17;;;174.55;;
37239;SDS011;23130;48.760;9.178;2022-09-17T13:30:11;414.97;;;181.60;;
37239;SDS011;23130;48.760;9.178;2022-09-17T13:37:30;420.60;;;188.10;;
37239;SDS011;23130;48.760;9.178;2022-09-17T13:39:58;415.65;;;184.13;;
37239;SDS011;23130;48.760;9.178;2022-09-17T13:42:28;425.77;;;183.40;;
37239;SDS011;23130;48.760;9.178;2022-09-17T13:45:08;416.67;;;185.57;;
37239;SDS011;23130;48.760;9.178;2022-09-17T13:47:36;412.25;;;185.23;;
37239;SDS011;23130;48.760;9.178;2022-09-17T13:50:08;415.13;;;181.75;;
37239;SDS011;23130;48.760;9.178;2022-09-17T13:55:28;412.27;;;184.07;;
37239;SDS011;23130;48.760;9.178;2022-09-17T13:58:03;403.33;;;186.75;;
37239;SDS011;23130;48.760;9.178;2022-09-17T14:00:53;423.40;;;191.23;;
37239;SDS011;23130;48.760;9.178;2022-09-17T14:03:26;411.38;;;188.00;;
37239;SDS011;23130;48.760;9.178;2022-09-17T14:13:50;417.45;;;188.25;;
37239;SDS011;23130;48.760;9.178;2022-09-17T14:33:16;394.20;;;179.52;;
37239;SDS011;23130;48.760;9.178;2022-09-17T14:35:48;391.45;;;180.63;;
37239;SDS011;23130;48.760;9.178;2022-09-17T14:49:20;482.85;;;310.20;;
37239;SDS011;23130;48.760;9.178;2022-09-17T14:51:59;459.05;;;327.50;;
37239;SDS011;23130;48.760;9.178;2022-09-17T14:54:32;527.50;;;470.58;;
37239;SDS011;23130;48.760;9.178;2022-09-17T15:02:36;524.75;;;449.02;;
37239;SDS011;23130;48.760;9.178;2022-09-17T15:07:51;497.58;;;355.48;;
37239;SDS011;23130;48.760;9.178;2022-09-17T15:10:29;485.65;;;333.08;;
37239;SDS011;23130;48.760;9.178;2022-09-17T15:12:55;475.08;;;294.55;;
37239;SDS011;23130;48.760;9.178;2022-09-17T15:15:23;462.63;;;253.73;;
37239;SDS011;23130;48.760;9.178;2022-09-17T15:17:50;448.80;;;228.65;;
37239;SDS011;23130;48.760;9.178;2022-09-17T15:20:21;441.58;;;209.02;;
37239;SDS011;23130;48.760;9.178;2022-09-17T15:22:53;441.45;;;202.07;;
37239;SDS011;23130;48.760;9.178;2022-09-17T15:25:42;420.63;;;192.40;;
37239;SDS011;23130;48.760;9.178;2022-09-17T15:30:57;410.40;;;186.60;;
37239;SDS011;23130;48.760;9.178;2022-09-17T15:33:23;411.38;;;182.07;;
37239;SDS011;23130;48.760;9.178;2022-09-17T15:38:39;413.70;;;192.43;;
37239;SDS011;23130;48.760;9.178;2022-09-17T15:41:26;384.45;;;172.32;;
37239;SDS011;23130;48.760;9.178;2022-09-17T15:44:03;385.95;;;175.65;;
37239;SDS011;23130;48.760;9.178;2022-09-17T15:46:46;394.40;;;189.45;;
37239;SDS011;23130;48.760;9.178;2022-09-17T15:52:24;398.33;;;188.88;;
37239;SDS011;23130;48.760;9.178;2022-09-17T15:57:21;386.80;;;187.75;;
37239;SDS011;23130;48.760;9.178;2022-09-17T15:59:48;397.63;;;191.60;;
37239;SDS011;23130;48.760;9.178;2022-09-17T16:02:32;385.20;;;189.75;;
37239;SDS011;23130;48.760;9.178;2022-09-17T16:07:46;363.48;;;181.02;;
37239;SDS011;23130;48.760;9.178;2022-09-17T16:10:13;373.27;;;182.48;;
37239;SDS011;23130;48.760;9.178;2022-09-17T16:12:39;374.52;;;183.73;;
37239;SDS011;23130;48.760;9.178;2022-09-17T16:15:05;369.73;;;178.88;;
37239;SDS011;23130;48.760;9.178;2022-09-17T16:17:33;378.63;;;190.07;;
37239;SDS011;23130;48.760;9.178;2022-09-17T16:20:13;379.30;;;189.20;;
37239;SDS011;23130;48.760;9.178;2022-09-17T16:22:39;373.70;;;180.02;;
37239;SDS011;23130;48.760;9.178;2022-09-17T16:25:06;385.08;;;188.63;;
37239;SDS011;23130;48.760;9.178;2022-09-17T16:27:34;384.98;;;183.63;;
37239;SDS011;23130;48.760;9.178;2022-09-17T16:30:05;390.58;;;185.18;;
37239;SDS011;23130;48.760;9.178;2022-09-17T16:32:33;383.45;;;180.88;;
37239;SDS011;23130;48.760;9.178;2022-09-17T16:34:59;382.58;;;185.32;;
37239;SDS011;23130;48.760;9.178;2022-09-17T16:37:25;380.92;;;190.00;;
37239;SDS011;23130;48.760;9.178;2022-09-17T16:39:50;391.42;;;195.52;;
37239;SDS011;23130;48.760;9.178;2022-09-17T16:42:16;388.83;;;196.40;;
37239;SDS011;23130;48.760;9.178;2022-09-17T16:44:42;383.30;;;192.65;;
37239;SDS011;23130;48.760;9.178;2022-09-17T16:47:08;371.60;;;184.30;;
37239;SDS011;23130;48.760;9.178;2022-09-17T16:49:33;378.65;;;193.07;;
37239;SDS011;23130;48.760;9.178;2022-09-17T16:51:59;373.40;;;190.02;;
37239;SDS011;23130;48.760;9.178;2022-09-17T16:54:25;374.50;;;184.90;;
37239;SDS011;23130;48.760;9.178;2022-09-17T16:56:50;370.02;;;177.30;;
37239;SDS011;23130;48.760;9.178;2022-09-17T16:59:16;371.65;;;186.40;;
37239;SDS011;23130;48.760;9.178;2022-09-17T17:01:41;373.17;;;188.90;;
37239;SDS011;23130;48.760;9.178;2022-09-17T17:04:07;371.00;;;187.30;;
37239;SDS011;23130;48.760;9.178;2022-09-17T17:06:33;366.95;;;180.00;;
37239;SDS011;23130;48.760;9.178;2022-09-17T17:08:58;357.17;;;180.55;;
37239;SDS011;23130;48.760;9.178;2022-09-17T17:11:26;339.58;;;170.55;;
37239;SDS011;23130;48.760;9.178;2022-09-17T17:13:52;342.35;;;170.88;;
37239;SDS011;23130;48.760;9.178;2022-09-17T17:16:20;335.67;;;168.88;;
37239;SDS011;23130;48.760;9.178;2022-09-17T17:18:46;340.13;;;167.95;;
37239;SDS011;23130;48.760;9.178;2022-09-17T17:21:12;340.02;;;165.65;;
37239;SDS011;23130;48.760;9.178;2022-09-17T17:23:38;345.02;;;170.75;;
37239;SDS011;23130;48.760;9.178;2022-09-17T17:26:04;339.27;;;163.68;;
37239;SDS011;23130;48.760;9.178;2022-09-17T17:28:33;341.63;;;164.43;;
37239;SDS011;23130;48.760;9.178;2022-09-17T17:31:00;340.73;;;165.68;;
37239;SDS011;23130;48.760;9.178;2022-09-17T17:33:26;335.95;;;165.20;;
37239;SDS011;23130;48.760;9.178;2022-09-17T17:35:52;340.25;;;166.25;;
37239;SDS011;23130;48.760;9.178;2022-09-17T17:38:18;343.27;;;165.00;;
37239;SDS011;23130;48.760;9.178;2022-09-17T17:40:43;352.93;;;169.43;;
37239;SDS011;23130;48.760;9.178;2022-09-17T17:43:10;353.95;;;165.52;;
37239;SDS011;23130;48.760;9.178;2022-09-17T17:45:37;352.05;;;169.23;;
37239;SDS011;23130;48.760;9.178;2022-09-17T17:54:36;334.20;;;159.33;;